Time;durP1;ratioP1;P1;durP2;ratioP2;P2;SDS_P1;SDS_P2;PMS_P1;PMS_P2;Temp;Humidity;BMP_temperature;BMP_pressure;BME280_temperature;BME280_humidity;BME280_pressure;Samples;Min_cycle;Max_cycle;Signal;HPM_P1;HPM_P2
2022/09/27 00:01:00;;;;;;;5.57;1.73;;;11.60;99.90;;;;;;6252392;23;20066;-77
2022/09/27 00:03:27;;;;;;;2.58;0.80;;;11.60;99.90;;;;;;6253190;23;20026;-77
2022/09/27 00:06:21;;;;;;;3.55;0.77;;;11.60;99.90;;;;;;6252427;23;20312;-76
2022/09/27 00:08:47;;;;;;;4.35;0.63;;;11.40;99.90;;;;;;6252092;23;20012;-76
2022/09/27 00:11:33;;;;;;;4.32;0.70;;;11.40;99.90;;;;;;6228390;23;20027;-77
2022/09/27 00:14:00;;;;;;;2.38;0.73;;;11.50;99.90;;;;;;6253065;23;20090;-77
2022/09/27 00:16:29;;;;;;;2.78;0.70;;;11.20;99.90;;;;;;6227140;23;20059;-76
2022/09/27 00:18:59;;;;;;;2.05;0.65;;;11.70;99.90;;;;;;6252787;23;20242;-76
2022/09/27 00:21:26;;;;;;;4.65;0.80;;;11.50;99.90;;;;;;6203169;23;20019;-77
2022/09/27 00:23:51;;;;;;;4.50;0.85;;;11.40;99.90;;;;;;6227294;23;20008;-76
2022/09/27 00:26:17;;;;;;;7.57;1.23;;;11.20;99.90;;;;;;6228173;23;20015;-75
2022/09/27 00:28:43;;;;;;;3.63;0.70;;;11.20;99.90;;;;;;6201893;23;20054;-76
2022/09/27 00:31:21;;;;;;;4.43;0.90;;;11.50;99.90;;;;;;6253053;23;20187;-76
2022/09/27 00:33:52;;;;;;;3.53;0.70;;;11.20;99.90;;;;;;6252307;23;20035;-77
2022/09/27 00:36:19;;;;;;;2.00;0.70;;;11.40;99.90;;;;;;6254069;23;20299;-77
2022/09/27 00:38:46;;;;;;;2.90;0.60;;;11.50;99.90;;;;;;6226356;23;20020;-78
2022/09/27 00:41:15;;;;;;;4.32;0.70;;;11.20;99.90;;;;;;6225042;23;20068;-78
2022/09/27 00:43:46;;;;;;;2.97;1.13;;;11.40;99.90;;;;;;6226805;23;20016;-77
2022/09/27 00:46:18;;;;;;;2.97;0.70;;;11.50;99.90;;;;;;6254354;23;20056;-75
2022/09/27 00:48:44;;;;;;;4.50;0.90;;;11.60;99.90;;;;;;6226989;23;20071;-76
2022/09/27 00:51:10;;;;;;;2.78;0.52;;;11.20;99.90;;;;;;6227569;23;20329;-77
2022/09/27 00:53:45;;;;;;;4.93;0.60;;;11.30;99.90;;;;;;6201285;23;20020;-76
2022/09/27 00:56:19;;;;;;;;;;;11.90;99.90;;;;;;6228981;23;20020;-78
2022/09/27 00:58:50;;;;;;;5.10;0.70;;;11.50;99.90;;;;;;6224828;23;20248;-79
2022/09/27 01:01:16;;;;;;;2.60;0.60;;;11.40;99.90;;;;;;6252647;23;20237;-78
2022/09/27 01:04:08;;;;;;;1.50;0.50;;;11.40;99.90;;;;;;6251039;23;20020;-76
2022/09/27 01:06:35;;;;;;;6.38;0.70;;;11.20;99.90;;;;;;6226252;23;20379;-76
2022/09/27 01:09:00;;;;;;;1.02;0.50;;;11.50;99.90;;;;;;6202696;23;20016;-83
2022/09/27 01:11:45;;;;;;;2.78;0.70;;;11.20;99.90;;;;;;6227970;23;20441;-80
2022/09/27 01:14:32;;;;;;;3.20;0.70;;;11.50;99.90;;;;;;6227304;23;20341;-76
2022/09/27 01:17:32;;;;;;;4.25;0.65;;;11.50;99.90;;;;;;6226747;23;20051;-77
2022/09/27 01:20:19;;;;;;;2.50;0.90;;;11.50;99.90;;;;;;6225655;23;20042;-76
2022/09/27 01:23:19;;;;;;;2.38;1.23;;;11.30;99.90;;;;;;6227589;23;20008;-76
2022/09/27 01:25:56;;;;;;;5.57;1.48;;;11.40;99.90;;;;;;6251412;23;20008;-75
2022/09/27 01:28:31;;;;;;;5.30;1.67;;;11.20;99.90;;;;;;6252530;23;20015;-78
2022/09/27 01:31:22;;;;;;;4.72;1.80;;;11.50;99.90;;;;;;6252866;23;20369;-76
2022/09/27 01:34:01;;;;;;;3.72;1.70;;;11.30;99.90;;;;;;6251562;23;20012;-78
2022/09/27 01:36:38;;;;;;;5.00;1.60;;;11.10;99.90;;;;;;6252677;23;20015;-77
2022/09/27 01:39:14;;;;;;;5.47;1.80;;;11.10;99.90;;;;;;6227960;23;20044;-77
2022/09/27 01:41:56;;;;;;;3.78;1.55;;;11.20;99.90;;;;;;6252046;23;20012;-74
2022/09/27 01:44:53;;;;;;;5.05;1.40;;;11.40;99.90;;;;;;6251836;23;20431;-79
2022/09/27 01:47:27;;;;;;;6.55;1.50;;;11.30;99.90;;;;;;6251080;23;20058;-76
2022/09/27 01:50:17;;;;;;;3.47;1.63;;;11.30;99.90;;;;;;6227343;23;20019;-76
2022/09/27 01:52:55;;;;;;;4.88;1.60;;;11.10;99.90;;;;;;6252283;23;20008;-77
2022/09/27 01:55:27;;;;;;;9.45;1.98;;;11.40;99.90;;;;;;6227687;23;20175;-76
2022/09/27 01:58:01;;;;;;;4.53;1.23;;;11.20;99.90;;;;;;6252160;23;20030;-76
2022/09/27 02:00:28;;;;;;;4.82;1.20;;;11.50;99.90;;;;;;6225112;23;20012;-76
2022/09/27 02:03:10;;;;;;;6.15;1.38;;;11.10;99.90;;;;;;6252067;23;20015;-78
2022/09/27 02:06:03;;;;;;;5.55;1.60;;;11.20;99.90;;;;;;6225442;23;20022;-75
2022/09/27 02:08:37;;;;;;;4.00;0.98;;;11.50;99.90;;;;;;6251818;23;20359;-76
2022/09/27 02:11:10;;;;;;;3.83;0.90;;;11.10;99.90;;;;;;6251130;23;20051;-77
2022/09/27 02:13:49;;;;;;;3.00;0.95;;;11.80;99.90;;;;;;6251103;23;20020;-76
2022/09/27 02:16:34;;;;;;;2.10;0.75;;;11.40;99.90;;;;;;6251502;23;20020;-76
2022/09/27 02:19:18;;;;;;;4.50;0.93;;;11.20;99.90;;;;;;6251765;23;20067;-76
2022/09/27 02:22:13;;;;;;;4.90;0.70;;;11.30;99.90;;;;;;6251647;23;20083;-76
2022/09/27 02:24:45;;;;;;;3.38;0.60;;;11.20;99.90;;;;;;6251677;23;20195;-77
2022/09/27 02:27:21;;;;;;;2.70;0.73;;;11.20;99.90;;;;;;6252398;23;20016;-76
2022/09/27 02:30:04;;;;;;;5.55;0.77;;;11.00;99.90;;;;;;6226716;23;20016;-78
2022/09/27 02:32:31;;;;;;;3.90;0.73;;;10.80;99.90;;;;;;6252637;23;20043;-77
2022/09/27 02:35:01;;;;;;;2.70;0.65;;;11.20;99.90;;;;;;6251795;23;20016;-77
2022/09/27 02:37:26;;;;;;;4.07;0.65;;;11.20;99.90;;;;;;6251582;23;20043;-76
2022/09/27 02:39:52;;;;;;;3.03;0.70;;;11.20;99.90;;;;;;6227092;23;20073;-77
2022/09/27 02:42:18;;;;;;;2.90;1.13;;;10.90;99.90;;;;;;6202261;23;20012;-77
2022/09/27 02:44:44;;;;;;;4.35;0.90;;;11.30;99.90;;;;;;6251716;23;20183;-76
2022/09/27 02:47:24;;;;;;;3.05;0.88;;;11.30;99.90;;;;;;6201528;23;20206;-77
2022/09/27 02:50:19;;;;;;;3.40;0.80;;;11.20;99.90;;;;;;6252740;23;20218;-77
2022/09/27 02:53:10;;;;;;;4.22;1.20;;;10.70;99.90;;;;;;6219399;23;20067;-78
2022/09/27 02:56:15;;;;;;;2.80;0.70;;;11.00;99.90;;;;;;6227311;23;20016;-77
2022/09/27 02:59:05;;;;;;;1.30;0.60;;;10.70;99.90;;;;;;6226198;23;20179;-77
2022/09/27 03:01:56;;;;;;;3.25;0.60;;;10.70;99.90;;;;;;6225614;23;20027;-77
2022/09/27 03:04:43;;;;;;;2.47;0.77;;;10.80;99.90;;;;;;6252566;23;20067;-77
2022/09/27 03:07:11;;;;;;;2.35;0.88;;;11.10;99.90;;;;;;6250332;23;20023;-76
2022/09/27 03:09:43;;;;;;;6.43;1.20;;;10.60;99.90;;;;;;6227148;23;20016;-76
2022/09/27 03:12:09;;;;;;;3.40;1.33;;;10.70;99.90;;;;;;6251101;23;20020;-78
2022/09/27 03:14:35;;;;;;;3.38;0.88;;;11.00;99.90;;;;;;6201156;23;20057;-76
2022/09/27 03:17:00;;;;;;;5.82;1.33;;;11.00;99.90;;;;;;6251098;23;20327;-76
2022/09/27 03:19:27;;;;;;;5.18;1.05;;;10.60;99.90;;;;;;6202954;23;20023;-75
2022/09/27 03:21:52;;;;;;;6.57;1.20;;;11.10;99.90;;;;;;6253950;23;20012;-75
2022/09/27 03:24:18;;;;;;;3.42;1.13;;;10.90;99.90;;;;;;6178786;23;20053;-78
2022/09/27 03:26:44;;;;;;;5.93;0.88;;;10.70;99.90;;;;;;6252213;23;20008;-78
2022/09/27 03:29:10;;;;;;;3.55;1.10;;;10.60;99.90;;;;;;6177938;23;20007;-77
2022/09/27 03:31:35;;;;;;;5.03;0.85;;;10.50;99.90;;;;;;6228867;23;20066;-77
2022/09/27 03:34:01;;;;;;;2.50;0.70;;;10.80;99.90;;;;;;6228080;23;20012;-77
2022/09/27 03:36:27;;;;;;;2.83;0.52;;;10.70;99.90;;;;;;6253519;23;20313;-77
2022/09/27 03:38:53;;;;;;;7.68;2.05;;;11.00;99.90;;;;;;6228443;23;20229;-77
2022/09/27 03:41:22;;;;;;;2.70;0.68;;;10.90;99.90;;;;;;6252738;23;20067;-77
2022/09/27 03:43:47;;;;;;;1.77;0.70;;;11.00;99.90;;;;;;6201186;23;20015;-77
2022/09/27 03:46:13;;;;;;;5.15;0.73;;;10.40;99.90;;;;;;6227954;23;20036;-77
2022/09/27 03:48:40;;;;;;;3.33;0.60;;;10.80;99.90;;;;;;6253417;23;20301;-77
2022/09/27 03:51:07;;;;;;;3.90;1.00;;;10.90;99.90;;;;;;6227548;23;20054;-76
2022/09/27 03:53:32;;;;;;;4.15;1.10;;;10.40;99.90;;;;;;6228596;23;20019;-77
2022/09/27 03:55:58;;;;;;;4.55;0.80;;;10.40;99.90;;;;;;6178978;23;20024;-76
2022/09/27 03:58:24;;;;;;;4.60;1.30;;;10.30;99.90;;;;;;6252594;23;20019;-78
2022/09/27 04:00:49;;;;;;;2.58;1.15;;;10.50;99.90;;;;;;6252977;23;20012;-78
2022/09/27 04:03:18;;;;;;;1.98;0.80;;;10.60;99.90;;;;;;6227453;23;20213;-76
2022/09/27 04:05:44;;;;;;;2.60;1.25;;;10.60;99.90;;;;;;6228306;23;20016;-76
2022/09/27 04:08:10;;;;;;;2.50;1.40;;;12.10;99.90;;;;;;6227461;23;20015;-77
2022/09/27 04:10:36;;;;;;;4.82;1.90;;;10.50;99.90;;;;;;6228402;23;20019;-77
2022/09/27 04:13:03;;;;;;;5.35;2.15;;;10.30;99.90;;;;;;6203510;23;20012;-77
2022/09/27 04:15:28;;;;;;;6.88;1.60;;;10.70;99.90;;;;;;6253163;23;20019;-77
2022/09/27 04:17:54;;;;;;;7.65;1.88;;;10.90;99.90;;;;;;6228178;23;20016;-78
2022/09/27 04:20:19;;;;;;;6.78;1.30;;;10.90;99.90;;;;;;6228489;23;20016;-75
2022/09/27 04:22:45;;;;;;;2.22;1.08;;;10.80;99.90;;;;;;6252522;23;20009;-77
2022/09/27 04:25:11;;;;;;;4.25;1.08;;;10.50;99.90;;;;;;6227731;23;20182;-78
2022/09/27 04:27:38;;;;;;;4.95;0.90;;;10.90;99.90;;;;;;6252798;23;20246;-77
2022/09/27 04:30:05;;;;;;;6.13;0.82;;;10.50;99.90;;;;;;6252210;23;20845;-76
2022/09/27 04:32:31;;;;;;;4.75;0.80;;;11.10;99.90;;;;;;6253169;23;20004;-76
2022/09/27 04:37:43;;;;;;;4.60;1.20;;;10.40;99.90;;;;;;6231550;23;20019;-76
2022/09/27 04:40:09;;;;;;;3.15;0.57;;;10.40;99.90;;;;;;6203102;23;20012;-78
2022/09/27 04:42:35;;;;;;;2.08;0.80;;;10.90;99.90;;;;;;6202810;23;20031;-78
2022/09/27 04:45:01;;;;;;;6.28;0.80;;;11.00;99.90;;;;;;6178330;23;20179;-79
2022/09/27 04:47:26;;;;;;;2.42;0.75;;;10.50;99.90;;;;;;6202995;23;20031;-79
2022/09/27 04:49:52;;;;;;;3.75;0.80;;;10.50;99.90;;;;;;6228350;23;20332;-79
2022/09/27 04:52:18;;;;;;;3.70;1.00;;;11.10;99.90;;;;;;6179058;23;20300;-76
2022/09/27 04:54:43;;;;;;;2.80;0.70;;;10.40;99.90;;;;;;6227286;23;20027;-77
2022/09/27 04:57:11;;;;;;;2.22;0.70;;;10.50;99.90;;;;;;6227410;23;20012;-77
2022/09/27 04:59:36;;;;;;;4.03;0.80;;;10.70;99.90;;;;;;6202695;23;20076;-77
2022/09/27 05:02:02;;;;;;;3.30;0.90;;;10.80;99.90;;;;;;6252290;23;20058;-78
2022/09/27 05:04:28;;;;;;;6.20;0.68;;;10.70;99.90;;;;;;6202854;23;20298;-77
2022/09/27 05:06:54;;;;;;;6.40;0.88;;;10.80;99.90;;;;;;6201630;23;20072;-77
2022/09/27 05:09:20;;;;;;;2.72;0.80;;;10.90;99.90;;;;;;6201967;23;20012;-78
2022/09/27 05:11:45;;;;;;;3.83;0.65;;;10.80;99.90;;;;;;6178199;23;20046;-78
2022/09/27 05:14:12;;;;;;;1.25;0.82;;;11.00;99.90;;;;;;6202191;23;20012;-77
2022/09/27 05:16:38;;;;;;;5.82;0.93;;;10.70;99.90;;;;;;6226525;23;20023;-77
2022/09/27 05:19:04;;;;;;;2.80;0.73;;;10.40;99.90;;;;;;6226834;23;20325;-78
2022/09/27 05:21:30;;;;;;;4.50;1.13;;;10.40;99.90;;;;;;6228133;23;20349;-79
2022/09/27 05:23:57;;;;;;;2.25;0.60;;;10.40;99.90;;;;;;6250490;23;20051;-81
2022/09/27 05:26:22;;;;;;;4.88;1.08;;;10.30;99.90;;;;;;6253681;23;20016;-79
2022/09/27 05:28:48;;;;;;;3.97;0.70;;;11.00;99.90;;;;;;6178099;23;20199;-78
2022/09/27 05:31:15;;;;;;;4.35;0.80;;;10.30;99.90;;;;;;6227990;23;20020;-78
2022/09/27 05:33:40;;;;;;;2.65;0.80;;;10.70;99.90;;;;;;6227566;23;20012;-78
2022/09/27 05:36:07;;;;;;;2.97;0.90;;;10.20;99.90;;;;;;6201614;23;20023;-76
2022/09/27 05:38:34;;;;;;;1.58;0.60;;;10.80;99.90;;;;;;6226519;23;20019;-77
2022/09/27 05:41:00;;;;;;;2.03;0.85;;;10.30;99.90;;;;;;6252018;23;20039;-79
2022/09/27 05:43:27;;;;;;;2.03;0.70;;;10.80;99.90;;;;;;6253275;23;20290;-79
2022/09/27 05:45:52;;;;;;;3.22;0.90;;;10.70;99.90;;;;;;6252455;23;20008;-78
2022/09/27 05:48:19;;;;;;;3.13;0.93;;;10.20;99.90;;;;;;6203973;23;20014;-76
2022/09/27 05:50:45;;;;;;;3.72;0.88;;;10.30;99.90;;;;;;6252473;23;20035;-76
2022/09/27 05:53:12;;;;;;;4.35;1.23;;;10.30;99.90;;;;;;6227551;23;20012;-79
2022/09/27 05:55:37;;;;;;;6.35;0.85;;;10.90;99.90;;;;;;6251364;23;20209;-78
2022/09/27 05:58:05;;;;;;;1.63;0.82;;;10.40;99.90;;;;;;6226602;23;20019;-82
2022/09/27 06:00:32;;;;;;;5.60;1.10;;;10.30;99.90;;;;;;6227517;23;20071;-80
2022/09/27 06:03:03;;;;;;;3.47;1.05;;;10.80;99.90;;;;;;6227033;23;20016;-83
2022/09/27 06:05:33;;;;;;;3.80;1.38;;;10.10;99.90;;;;;;6227423;23;20016;-76
2022/09/27 06:08:01;;;;;;;1.55;0.65;;;10.60;99.90;;;;;;6252254;23;20004;-76
2022/09/27 06:10:28;;;;;;;4.80;1.00;;;11.10;99.90;;;;;;6253896;23;20019;-79
2022/09/27 06:13:09;;;;;;;2.42;1.00;;;10.10;99.90;;;;;;6228423;23;20232;-79
2022/09/27 06:15:36;;;;;;;1.20;0.68;;;10.30;99.90;;;;;;6227595;23;20328;-80
2022/09/27 06:18:10;;;;;;;5.38;1.10;;;10.30;99.90;;;;;;6226048;23;20066;-81
2022/09/27 06:20:37;;;;;;;6.40;0.97;;;10.30;99.90;;;;;;6253263;23;20016;-77
2022/09/27 06:23:08;;;;;;;1.92;0.90;;;11.00;99.90;;;;;;6226760;23;20057;-78
2022/09/27 06:25:35;;;;;;;1.77;0.63;;;10.30;99.90;;;;;;6227475;23;20023;-81
2022/09/27 06:28:01;;;;;;;2.55;0.95;;;10.90;99.90;;;;;;6250840;23;20054;-80
2022/09/27 06:30:27;;;;;;;4.68;0.70;;;10.10;99.90;;;;;;6176102;23;20012;-77
2022/09/27 06:33:01;;;;;;;3.33;0.70;;;11.00;99.90;;;;;;6227868;23;20039;-80
2022/09/27 06:35:28;;;;;;;1.55;0.73;;;11.00;99.90;;;;;;6252082;23;20040;-79
2022/09/27 06:37:54;;;;;;;5.88;1.08;;;10.40;99.90;;;;;;6226305;23;20063;-78
2022/09/27 06:40:21;;;;;;;2.85;0.80;;;10.80;99.90;;;;;;6228140;23;20018;-76
2022/09/27 06:42:48;;;;;;;2.70;1.10;;;10.20;99.90;;;;;;6228111;23;20008;-80
2022/09/27 06:45:14;;;;;;;3.08;0.80;;;11.00;99.90;;;;;;6253233;23;20619;-78
2022/09/27 06:47:39;;;;;;;5.90;0.88;;;10.40;99.90;;;;;;6176476;23;20015;-78
2022/09/27 06:50:06;;;;;;;2.20;0.90;;;11.10;99.90;;;;;;6226577;23;20004;-77
2022/09/27 06:52:33;;;;;;;4.57;1.05;;;10.30;99.90;;;;;;6253303;23;20011;-78
2022/09/27 06:55:00;;;;;;;4.40;1.42;;;10.40;99.90;;;;;;6227174;23;20059;-79
2022/09/27 07:00:25;;;;;;;3.78;1.25;;;10.90;99.90;;;;;;6209573;23;20297;-79
2022/09/27 07:02:59;;;;;;;5.57;1.40;;;10.80;99.90;;;;;;6228054;23;20015;-80
2022/09/27 07:05:29;;;;;;;6.38;1.40;;;10.50;99.90;;;;;;6253321;23;20008;-80
2022/09/27 07:07:58;;;;;;;5.40;1.27;;;10.50;99.90;;;;;;6252207;23;20091;-79
2022/09/27 07:10:25;;;;;;;5.55;1.73;;;11.10;99.90;;;;;;6201573;23;20287;-77
2022/09/27 07:12:51;;;;;;;12.50;1.83;;;11.30;99.90;;;;;;6226816;23;20027;-77
2022/09/27 07:15:19;;;;;;;8.07;1.77;;;10.50;99.90;;;;;;6251732;23;20219;-79
2022/09/27 07:17:58;;;;;;;5.90;1.35;;;11.40;99.90;;;;;;6227729;23;20012;-77
2022/09/27 07:20:26;;;;;;;4.70;1.27;;;11.20;99.90;;;;;;6226680;23;20024;-77
2022/09/27 07:22:52;;;;;;;5.28;1.10;;;10.60;99.90;;;;;;6227089;23;20075;-77
2022/09/27 07:25:18;;;;;;;3.47;1.15;;;11.30;99.90;;;;;;6202249;23;20016;-77
2022/09/27 07:27:44;;;;;;;5.65;1.20;;;10.50;99.90;;;;;;6252786;23;20195;-77
2022/09/27 07:30:11;;;;;;;5.82;1.52;;;11.50;99.90;;;;;;6201600;23;20011;-77
2022/09/27 07:32:37;;;;;;;5.13;1.65;;;10.70;99.90;;;;;;6223813;23;20051;-77
2022/09/27 07:35:04;;;;;;;7.47;1.83;;;11.60;99.90;;;;;;6225164;23;20393;-77
2022/09/27 07:37:34;;;;;;;6.15;1.90;;;11.80;99.90;;;;;;6224630;23;20237;-77
2022/09/27 07:40:05;;;;;;;3.47;1.65;;;10.40;99.90;;;;;;6223811;23;20336;-78
2022/09/27 07:42:32;;;;;;;4.43;1.88;;;11.00;99.90;;;;;;6226091;23;20071;-77
2022/09/27 07:44:59;;;;;;;4.47;2.05;;;11.60;99.90;;;;;;6224571;23;20080;-77
2022/09/27 07:47:29;;;;;;;6.15;1.83;;;11.80;99.90;;;;;;6224115;23;20016;-78
2022/09/27 07:49:58;;;;;;;7.10;1.50;;;11.40;99.90;;;;;;6199945;23;20176;-77
2022/09/27 07:52:24;;;;;;;7.63;1.45;;;11.30;99.90;;;;;;6201293;23;20020;-78
2022/09/27 07:54:50;;;;;;;7.28;1.50;;;11.40;99.90;;;;;;6225554;23;20012;-77
2022/09/27 07:57:16;;;;;;;5.43;1.50;;;12.00;99.90;;;;;;6225816;23;20019;-78
2022/09/27 07:59:42;;;;;;;6.72;1.42;;;12.30;99.90;;;;;;6201414;23;20020;-78
2022/09/27 08:02:15;;;;;;;4.85;1.40;;;11.50;99.90;;;;;;6225442;23;20015;-78
2022/09/27 08:04:45;;;;;;;8.60;1.65;;;12.60;99.90;;;;;;6252549;23;20012;-78
2022/09/27 08:07:13;;;;;;;4.93;1.50;;;12.60;99.90;;;;;;6227524;23;20046;-78
2022/09/27 08:09:39;;;;;;;5.57;1.40;;;12.70;99.90;;;;;;6253381;23;20015;-78
2022/09/27 08:12:04;;;;;;;4.30;1.05;;;12.00;99.90;;;;;;6252049;23;20019;-79
2022/09/27 08:14:30;;;;;;;3.55;1.15;;;12.80;99.90;;;;;;6203186;23;20012;-79
2022/09/27 08:16:56;;;;;;;3.92;1.20;;;11.80;99.90;;;;;;6227545;23;20038;-78
2022/09/27 08:19:22;;;;;;;2.28;1.23;;;11.60;99.90;;;;;;6227954;23;20322;-78
2022/09/27 08:21:51;;;;;;;2.50;1.10;;;12.50;99.90;;;;;;6253251;23;20023;-78
2022/09/27 08:24:16;;;;;;;4.28;1.10;;;12.20;99.90;;;;;;6227661;23;20020;-77
2022/09/27 08:26:42;;;;;;;1.65;0.90;;;11.60;99.90;;;;;;6203241;23;20010;-77
2022/09/27 08:29:08;;;;;;;5.85;1.65;;;12.40;99.90;;;;;;6226834;23;20074;-77
2022/09/27 08:31:34;;;;;;;4.53;1.33;;;11.40;99.90;;;;;;6227946;23;20043;-77
2022/09/27 08:34:00;;;;;;;5.35;1.40;;;12.60;99.90;;;;;;6227541;23;20012;-77
2022/09/27 08:36:27;;;;;;;3.15;1.10;;;11.50;99.90;;;;;;6228165;23;20020;-77
2022/09/27 08:38:56;;;;;;;4.40;1.25;;;11.50;99.90;;;;;;6228120;23;20008;-77
2022/09/27 08:41:51;;;;;;;6.10;1.20;;;11.80;99.90;;;;;;6227290;23;20009;-78
2022/09/27 08:44:32;;;;;;;2.15;1.20;;;12.80;99.90;;;;;;6227674;23;20114;-79
2022/09/27 08:47:13;;;;;;;4.13;0.90;;;12.50;99.90;;;;;;6227270;23;20066;-78
2022/09/27 08:49:43;;;;;;;3.97;0.90;;;12.00;99.90;;;;;;6253071;23;20015;-79
2022/09/27 08:52:19;;;;;;;3.13;0.73;;;12.80;99.90;;;;;;6252658;23;20012;-79
2022/09/27 08:54:46;;;;;;;4.38;1.00;;;12.80;99.90;;;;;;6253460;23;20016;-80
2022/09/27 08:57:12;;;;;;;3.65;0.80;;;12.20;99.90;;;;;;6177570;23;20187;-78
2022/09/27 08:59:53;;;;;;;3.60;0.90;;;13.10;99.90;;;;;;6252863;23;20024;-80
2022/09/27 09:02:23;;;;;;;3.35;0.80;;;12.30;99.90;;;;;;6252599;23;20014;-78
2022/09/27 09:04:55;;;;;;;3.30;0.95;;;13.10;99.90;;;;;;6253038;23;20038;-76
2022/09/27 09:07:41;;;;;;;2.42;0.90;;;12.80;99.90;;;;;;6227528;23;20008;-79
2022/09/27 09:13:28;;;;;;;4.57;1.00;;;13.10;99.90;;;;;;6252479;23;20043;-79
2022/09/27 09:16:17;;;;;;;2.53;1.08;;;13.20;99.90;;;;;;6227508;23;20019;-79
2022/09/27 09:18:45;;;;;;;2.80;0.57;;;12.40;99.90;;;;;;6227741;23;20051;-78
2022/09/27 09:21:25;;;;;;;3.22;0.77;;;13.00;99.90;;;;;;6226613;23;20014;-78
2022/09/27 09:24:29;;;;;;;1.73;0.50;;;12.40;99.90;;;;;;6252154;23;20012;-78
2022/09/27 09:27:08;;;;;;;2.90;0.80;;;12.90;99.90;;;;;;6223118;23;20183;-78
2022/09/27 09:29:57;;;;;;;1.80;0.80;;;13.20;99.90;;;;;;6227552;23;20020;-78
2022/09/27 09:32:43;;;;;;;1.58;0.70;;;12.50;99.90;;;;;;6252372;23;20026;-78
2022/09/27 09:35:16;;;;;;;1.75;0.50;;;13.00;99.90;;;;;;6226585;23;20031;-79
2022/09/27 09:38:08;;;;;;;3.15;1.30;;;12.50;99.90;;;;;;6252869;23;20066;-78
2022/09/27 09:40:44;;;;;;;2.00;0.63;;;13.30;99.90;;;;;;6227288;23;20012;-75
2022/09/27 09:43:22;;;;;;;1.70;0.77;;;13.50;99.90;;;;;;6226236;23;20012;-75
2022/09/27 09:46:01;;;;;;;3.13;0.75;;;12.60;99.90;;;;;;6227077;23;20062;-77
2022/09/27 09:48:49;;;;;;;1.30;0.80;;;12.20;99.90;;;;;;6252343;23;20019;-78
2022/09/27 09:51:31;;;;;;;1.48;0.75;;;12.80;99.90;;;;;;6251893;23;20012;-79
2022/09/27 09:54:28;;;;;;;2.28;0.80;;;12.70;99.90;;;;;;6226936;23;20008;-78
2022/09/27 09:57:14;;;;;;;4.63;0.75;;;11.90;99.90;;;;;;6194795;23;20075;-78
2022/09/27 09:59:53;;;;;;;3.67;0.70;;;12.10;99.90;;;;;;6227147;23;20024;-79
2022/09/27 10:02:33;;;;;;;1.75;0.70;;;12.40;99.90;;;;;;6226660;23;20055;-78
2022/09/27 10:05:05;;;;;;;1.83;0.70;;;11.50;99.90;;;;;;6251659;23;20016;-78
2022/09/27 10:07:32;;;;;;;1.33;0.50;;;11.40;99.90;;;;;;6251883;23;20066;-77
2022/09/27 10:10:00;;;;;;;0.65;0.52;;;12.20;99.90;;;;;;6226481;23;20061;-77
2022/09/27 10:12:27;;;;;;;1.45;0.50;;;12.30;99.90;;;;;;6252056;23;20829;-77
2022/09/27 10:14:56;;;;;;;1.25;0.60;;;12.20;99.90;;;;;;6251912;23;20011;-77
2022/09/27 10:17:26;;;;;;;1.20;0.50;;;11.80;99.90;;;;;;6226567;23;20020;-78
2022/09/27 10:19:53;;;;;;;1.00;0.70;;;12.80;99.90;;;;;;6226619;23;20058;-77
2022/09/27 10:22:24;;;;;;;3.17;0.75;;;12.70;99.90;;;;;;6201252;23;20199;-78
2022/09/27 10:25:02;;;;;;;3.92;0.60;;;12.40;99.90;;;;;;6251179;23;20019;-77
2022/09/27 10:27:42;;;;;;;3.45;0.63;;;12.00;99.90;;;;;;6225961;23;20020;-78
2022/09/27 10:30:26;;;;;;;1.42;0.50;;;11.60;99.90;;;;;;6225131;23;20040;-77
2022/09/27 10:33:06;;;;;;;3.05;0.63;;;11.50;99.90;;;;;;6250809;23;20067;-77
2022/09/27 10:35:36;;;;;;;3.03;0.60;;;12.00;99.90;;;;;;6226449;23;20011;-79
2022/09/27 10:38:17;;;;;;;1.73;0.70;;;12.30;99.90;;;;;;6225967;23;20067;-78
2022/09/27 10:40:44;;;;;;;1.00;0.57;;;11.60;99.90;;;;;;6226453;23;20023;-77
2022/09/27 10:43:32;;;;;;;4.10;0.80;;;11.50;99.90;;;;;;6225563;23;20020;-78
2022/09/27 10:46:21;;;;;;;3.50;1.20;;;11.80;99.90;;;;;;6251739;23;20015;-78
2022/09/27 10:48:46;;;;;;;2.67;0.70;;;12.30;99.90;;;;;;6203815;23;20107;-76
2022/09/27 10:51:22;;;;;;;3.08;0.98;;;12.60;99.90;;;;;;6251065;23;20012;-77
2022/09/27 10:53:48;;;;;;;3.00;1.10;;;12.80;99.90;;;;;;6251659;23;20298;-78
2022/09/27 10:56:30;;;;;;;3.97;1.45;;;12.90;99.90;;;;;;6251449;23;20012;-77
2022/09/27 10:58:58;;;;;;;2.42;0.93;;;11.80;99.90;;;;;;6251375;23;20008;-78
2022/09/27 11:01:26;;;;;;;1.80;1.00;;;12.70;99.90;;;;;;6226004;23;20042;-79
2022/09/27 11:03:56;;;;;;;2.35;1.17;;;12.70;99.90;;;;;;6226449;23;20020;-78
2022/09/27 11:06:22;;;;;;;1.38;1.00;;;13.20;99.90;;;;;;6225823;23;20008;-78
2022/09/27 11:08:55;;;;;;;2.40;0.93;;;12.70;99.90;;;;;;6226094;23;20015;-78
2022/09/27 11:11:25;;;;;;;1.23;0.77;;;12.70;99.90;;;;;;6225972;23;20019;-80
2022/09/27 11:13:58;;;;;;;1.67;0.80;;;12.80;99.90;;;;;;6251389;23;20019;-79
2022/09/27 11:16:36;;;;;;;1.70;0.77;;;12.90;99.90;;;;;;6226145;23;20019;-80
2022/09/27 11:19:20;;;;;;;1.55;0.60;;;12.70;99.90;;;;;;6225550;23;20024;-79
2022/09/27 11:22:02;;;;;;;1.30;0.63;;;12.60;99.90;;;;;;6251180;23;20008;-79
2022/09/27 11:25:14;;;;;;;1.33;0.40;;;13.70;99.90;;;;;;6226581;23;20012;-79
2022/09/27 11:28:04;;;;;;;1.38;0.50;;;12.40;99.90;;;;;;6106718;23;20021;-78
2022/09/27 11:30:44;;;;;;;0.60;0.40;;;12.30;99.90;;;;;;6251764;23;20225;-78
2022/09/27 11:33:49;;;;;;;1.92;0.70;;;12.50;99.90;;;;;;6250770;23;20194;-76
2022/09/27 11:36:54;;;;;;;1.00;0.40;;;12.10;99.90;;;;;;6251549;23;20008;-77
2022/09/27 11:39:40;;;;;;;2.33;0.40;;;12.30;99.90;;;;;;6227631;23;20310;-77
2022/09/27 11:42:05;;;;;;;1.08;0.43;;;11.90;99.90;;;;;;6203264;23;20058;-75
2022/09/27 11:44:42;;;;;;;1.20;0.60;;;12.80;99.90;;;;;;6254708;23;20079;-76
2022/09/27 11:47:42;;;;;;;2.08;0.40;;;11.70;99.90;;;;;;6252815;23;20797;-75
2022/09/27 11:50:55;;;;;;;1.17;0.52;;;12.40;99.90;;;;;;6253055;23;20273;-75
2022/09/27 11:53:48;;;;;;;1.13;0.50;;;12.70;99.90;;;;;;6239914;23;20031;-75
2022/09/27 11:56:14;;;;;;;0.73;0.40;;;11.70;99.90;;;;;;6253040;23;20012;-72
2022/09/27 11:59:19;;;;;;;0.70;0.47;;;11.50;99.90;;;;;;6253321;23;20008;-73
2022/09/27 12:02:13;;;;;;;1.40;0.60;;;12.20;99.90;;;;;;6253189;23;20020;-73
2022/09/27 12:04:56;;;;;;;1.88;0.50;;;12.00;99.90;;;;;;6253515;23;20573;-79
2022/09/27 12:07:43;;;;;;;2.42;0.50;;;12.90;99.90;;;;;;6253147;23;20038;-76
2022/09/27 12:10:15;;;;;;;1.60;1.02;;;12.50;99.90;;;;;;6227357;23;20083;-80
2022/09/27 12:12:49;;;;;;;0.95;0.47;;;12.70;99.90;;;;;;6253368;23;20031;-76
2022/09/27 12:15:25;;;;;;;0.20;0.20;;;12.60;99.90;;;;;;6253219;23;20019;-76
2022/09/27 12:17:55;;;;;;;0.20;0.20;;;12.10;99.90;;;;;;6227626;23;20047;-77
2022/09/27 12:20:26;;;;;;;0.20;0.20;;;11.90;99.90;;;;;;6227439;23;20024;-79
2022/09/27 12:22:55;;;;;;;0.32;0.20;;;11.50;99.90;;;;;;6227746;23;20194;-78
2022/09/27 12:25:24;;;;;;;0.10;0.10;;;11.80;99.90;;;;;;6227363;23;20026;-80
2022/09/27 12:28:13;;;;;;;0.20;0.20;;;11.50;99.90;;;;;;6252831;23;20008;-76
2022/09/27 12:30:43;;;;;;;0.20;0.20;;;11.80;99.90;;;;;;6253134;23;20012;-76
2022/09/27 12:33:31;;;;;;;0.10;0.10;;;12.10;99.90;;;;;;6227238;23;20011;-77
2022/09/27 12:36:06;;;;;;;0.10;0.10;;;12.90;99.90;;;;;;6252509;23;20051;-77
2022/09/27 12:38:52;;;;;;;;;;;12.60;99.90;;;;;;6253834;23;20050;-77
2022/09/27 12:41:21;;;;;;;0.10;0.10;;;11.70;99.90;;;;;;6252763;23;19907;-77
2022/09/27 12:43:49;;;;;;;0.20;0.20;;;12.60;99.90;;;;;;6228095;23;20019;-77
2022/09/27 12:46:23;;;;;;;0.43;0.30;;;12.50;99.90;;;;;;6253320;23;20334;-77
2022/09/27 12:49:09;;;;;;;2.72;0.30;;;12.30;99.90;;;;;;6227442;23;20008;-76
2022/09/27 12:51:48;;;;;;;0.98;0.35;;;11.70;99.90;;;;;;6252247;23;20062;-77
2022/09/27 12:54:19;;;;;;;0.25;0.20;;;11.50;99.90;;;;;;6230381;23;20020;-75
2022/09/27 12:57:17;;;;;;;0.17;0.17;;;12.40;99.90;;;;;;6253519;23;20051;-82
2022/09/27 12:59:55;;;;;;;0.40;0.40;;;12.40;99.90;;;;;;6228651;23;20152;-80
2022/09/27 13:02:49;;;;;;;1.27;0.50;;;11.60;99.90;;;;;;6227800;23;20008;-79
2022/09/27 13:05:27;;;;;;;0.52;0.43;;;11.80;99.90;;;;;;6228447;23;20019;-77
2022/09/27 13:08:11;;;;;;;2.15;0.47;;;11.60;99.90;;;;;;6252698;23;20022;-77
2022/09/27 13:10:55;;;;;;;3.92;0.85;;;12.20;99.90;;;;;;6227505;23;20096;-77
2022/09/27 13:13:25;;;;;;;2.23;0.77;;;12.40;99.90;;;;;;6252853;23;20019;-78
2022/09/27 13:15:55;;;;;;;2.35;0.57;;;11.90;99.90;;;;;;6253139;23;20290;-78
2022/09/27 13:18:51;;;;;;;1.80;0.60;;;12.80;99.90;;;;;;6227355;23;20023;-78
2022/09/27 13:21:48;;;;;;;1.42;0.70;;;12.80;99.90;;;;;;6253013;23;20187;-78
2022/09/27 13:24:39;;;;;;;4.85;0.90;;;12.50;99.90;;;;;;6252999;23;20008;-80
2022/09/27 13:27:28;;;;;;;2.40;1.00;;;12.90;99.90;;;;;;6227227;23;20047;-77
2022/09/27 13:30:17;;;;;;;3.47;1.10;;;12.60;99.90;;;;;;6207778;23;20035;-77